Terminal Aerodrome Forecast
Issued by NWS Glasgow, MT

Home | Current Version | Previous Version | Text Only | Print | Product List | Glossary On
Versions: 1 2 3 4 5 6 7 8 9 10 11 12 13 14 15
000
FTUS45 KGGW 211724
TAFGGW
TAF
KGGW 211724Z 2118/2218 VRB03KT P6SM FEW150
     FM220000 11008KT P6SM FEW120
     FM221000 12006KT P6SM BKN070 WS020/26025KT
     FM221300 17006KT P6SM SCT110 WS020/28045KT=

USA.gov is the U.S. government's official web portal to all federal, state and local government web resources and services.